createdAt,value
2022-10-23T00:00:20.563Z,100684.41
2022-10-23T00:03:43.419Z,100703.88
2022-10-23T00:06:45.646Z,100694.97
2022-10-23T00:09:47.959Z,100697.63
2022-10-23T00:12:50.562Z,100704.66
2022-10-23T00:18:54.729Z,100711.78
2022-10-23T00:21:56.924Z,100709.16
2022-10-23T00:24:58.915Z,100717.19
2022-10-23T00:28:01.144Z,100715.44
2022-10-23T00:31:06.461Z,100716.31
2022-10-23T00:34:09.149Z,100723.53
2022-10-23T00:37:11.259Z,100727.88
2022-10-23T00:40:13.493Z,100723.59
2022-10-23T00:43:25.944Z,100723.56
2022-10-23T00:46:28.384Z,100732.44
2022-10-23T00:49:32.492Z,100726.22
2022-10-23T00:52:41.770Z,100722.81
2022-10-23T00:55:47.827Z,100744.13
2022-10-23T00:58:49.996Z,100740.47
2022-10-23T01:01:52.424Z,100735.16
2022-10-23T01:04:54.643Z,100750.38
2022-10-23T01:08:03.172Z,100748.56
2022-10-23T01:11:12.469Z,100746.84
2022-10-23T01:14:36.272Z,100753.91
2022-10-23T01:18:16.355Z,100750.38
2022-10-23T01:21:33.569Z,100756.53
2022-10-23T01:25:03.196Z,100762.78
2022-10-23T01:28:10.821Z,100758.31
2022-10-23T01:31:17.410Z,100754.69
2022-10-23T01:34:49.707Z,100762.75
2022-10-23T01:37:56.504Z,100759.16
2022-10-23T01:41:16.304Z,100761.84
2022-10-23T01:44:38.077Z,100768.97
2022-10-23T01:47:42.512Z,100753.81
2022-10-23T01:50:47.326Z,100755.50
2022-10-23T01:53:51.372Z,100760.03
2022-10-23T01:56:54.699Z,100760.88
2022-10-23T02:00:12.737Z,100762.75
2022-10-23T02:03:29.529Z,100763.72
2022-10-23T02:06:31.973Z,100767.19
2022-10-23T02:09:34.730Z,100762.75
2022-10-23T02:12:48.274Z,100766.16
2022-10-23T02:16:15.359Z,100780.50
2022-10-23T02:19:48.042Z,100783.22
2022-10-23T02:23:00.105Z,100780.47
2022-10-23T02:26:34.639Z,100787.56
2022-10-23T02:29:41.366Z,100782.28
2022-10-23T02:32:48.039Z,100799.16
2022-10-23T02:35:52.512Z,100796.50
2022-10-23T02:38:57.010Z,100793.75
2022-10-23T02:42:05.354Z,100790.19
2022-10-23T02:45:35.610Z,100791.91
2022-10-23T02:49:15.356Z,100794.72
2022-10-23T02:52:21.015Z,100792.84
2022-10-23T02:55:35.153Z,100787.59
2022-10-23T02:58:46.289Z,100786.78
2022-10-23T03:01:56.266Z,100788.63
2022-10-23T03:04:59.451Z,100789.56
2022-10-23T03:08:05.027Z,100783.41
2022-10-23T03:11:07.082Z,100789.63
2022-10-23T03:14:10.230Z,100801.22
2022-10-23T03:17:12.236Z,100802.09
2022-10-23T03:20:14.847Z,100801.28
2022-10-23T03:23:17.805Z,100795.00
2022-10-23T03:26:20.016Z,100789.63
2022-10-23T03:29:22.073Z,100808.38
2022-10-23T03:32:25.522Z,100808.44
2022-10-23T03:35:27.793Z,100810.22
2022-10-23T03:38:30.073Z,100805.72
2022-10-23T03:41:32.331Z,100806.69
2022-10-23T03:44:35.092Z,100811.09
2022-10-23T03:47:41.408Z,100811.09
2022-10-23T03:50:43.979Z,100813.78
2022-10-23T03:53:46.572Z,100817.38
2022-10-23T03:56:53.659Z,100825.34
2022-10-23T03:59:58.623Z,100831.59
2022-10-23T04:03:04.115Z,100827.13
2022-10-23T04:06:06.427Z,100828.06
2022-10-23T04:09:09.173Z,100839.63
2022-10-23T04:12:11.265Z,100851.25
2022-10-23T04:15:13.591Z,100845.91
2022-10-23T04:18:19.125Z,100855.63
2022-10-23T04:21:22.379Z,100855.59
2022-10-23T04:24:25.229Z,100844.06
2022-10-23T04:27:27.553Z,100842.38
2022-10-23T04:30:34.432Z,100838.81
2022-10-23T04:33:36.705Z,100846.81
2022-10-23T04:36:39.014Z,100848.59
2022-10-23T04:39:45.700Z,100853.00
2022-10-23T04:42:49.159Z,100850.38
2022-10-23T04:45:51.481Z,100859.34
2022-10-23T04:48:53.458Z,100857.59
2022-10-23T04:52:14.328Z,100853.06
2022-10-23T04:55:39.440Z,100855.84
2022-10-23T04:58:47.063Z,100860.22
2022-10-23T05:01:49.623Z,100856.75
2022-10-23T05:04:53.261Z,100857.66
2022-10-23T05:08:17.891Z,100862.09
2022-10-23T05:11:43.412Z,100873.56
2022-10-23T05:14:45.634Z,100865.56
2022-10-23T05:17:51.020Z,100870.91
2022-10-23T05:20:59.687Z,100876.22
2022-10-23T05:24:02.235Z,100886.91
2022-10-23T05:27:04.557Z,100892.28
2022-10-23T05:30:08.298Z,100903.97
2022-10-23T05:33:12.602Z,100902.19
2022-10-23T05:36:17.621Z,100899.63
2022-10-23T05:39:21.029Z,100905.09
2022-10-23T05:42:23.301Z,100887.28
2022-10-23T05:45:27.204Z,100903.28
2022-10-23T05:52:20.252Z,100903.22
2022-10-23T05:55:44.790Z,100904.09
2022-10-23T05:59:12.712Z,100896.97
2022-10-23T06:02:33.934Z,100903.19
2022-10-23T06:05:50.268Z,100891.66
2022-10-23T06:08:56.062Z,100902.28
2022-10-23T06:11:58.433Z,100913.81
2022-10-23T06:15:00.829Z,100900.47
2022-10-23T06:18:22.876Z,100916.44
2022-10-23T06:21:37.363Z,100924.44
2022-10-23T06:24:40.353Z,100936.00
2022-10-23T06:27:47.897Z,100928.84
2022-10-23T06:30:50.244Z,100935.09
2022-10-23T06:33:54.011Z,100938.72
2022-10-23T06:36:56.108Z,100936.06
2022-10-23T06:40:18.090Z,100932.53
2022-10-23T06:43:36.577Z,100936.97
2022-10-23T06:47:02.265Z,100944.06
2022-10-23T06:50:22.829Z,100935.13
2022-10-23T06:53:28.422Z,100938.63
2022-10-23T06:56:40.887Z,100955.53
2022-10-23T06:59:44.586Z,100949.22
2022-10-23T07:02:46.901Z,100952.84
2022-10-23T07:05:49.432Z,100954.56
2022-10-23T07:08:52.365Z,100950.09
2022-10-23T07:12:13.592Z,100933.19
2022-10-23T07:15:22.527Z,100940.28
2022-10-23T07:18:25.369Z,100950.88
2022-10-23T07:21:45.929Z,100949.97
2022-10-23T07:25:02.094Z,100947.25
2022-10-23T07:28:10.978Z,100958.72
2022-10-23T07:31:14.350Z,100949.78
2022-10-23T07:34:36.893Z,100948.00
2022-10-23T07:38:00.352Z,100947.88
2022-10-23T07:41:08.958Z,100951.34
2022-10-23T07:44:14.387Z,100941.63
2022-10-23T07:47:16.703Z,100950.47
2022-10-23T07:50:22.885Z,100939.84
2022-10-23T07:53:25.636Z,100942.44
2022-10-23T07:56:31.497Z,100947.69
2022-10-23T07:59:52.429Z,100938.72
2022-10-23T08:02:56.942Z,100926.16
2022-10-23T08:06:00.318Z,100928.63
2022-10-23T08:09:06.305Z,100930.44
2022-10-23T08:12:10.679Z,100932.13
2022-10-23T08:15:13.088Z,100922.50
2022-10-23T08:18:27.207Z,100935.72
2022-10-23T08:21:31.780Z,100931.19
2022-10-23T08:24:33.888Z,100938.41
2022-10-23T08:27:36.303Z,100944.56
2022-10-23T08:30:39.101Z,100940.88
2022-10-23T08:33:41.788Z,100945.38
2022-10-23T08:36:43.934Z,100951.69
2022-10-23T08:39:50.102Z,100953.41
2022-10-23T08:43:15.965Z,100948.03
2022-10-23T08:46:36.908Z,100950.75
2022-10-23T08:50:02.125Z,100955.22
2022-10-23T08:53:12.755Z,100948.91
2022-10-23T08:56:22.924Z,100953.28
2022-10-23T08:59:39.899Z,100943.56
2022-10-23T09:02:50.494Z,100948.94
2022-10-23T09:06:11.724Z,100950.75
2022-10-23T09:09:45.059Z,100955.94
2022-10-23T09:12:47.751Z,100948.69
2022-10-23T09:16:16.031Z,100942.38
2022-10-23T09:19:20.677Z,100953.13
2022-10-23T09:22:22.748Z,100953.00
2022-10-23T09:25:31.656Z,100959.16
2022-10-23T09:28:47.659Z,100956.28
2022-10-23T09:31:52.091Z,100950.84
2022-10-23T09:34:55.555Z,100956.28
2022-10-23T09:37:57.865Z,100955.34
2022-10-23T09:41:26.967Z,100958.81
2022-10-23T09:44:34.243Z,100961.63
2022-10-23T09:47:36.610Z,100948.28
2022-10-23T09:50:47.408Z,100949.22
2022-10-23T09:53:53.134Z,100949.13
2022-10-23T09:56:56.304Z,100949.19
2022-10-23T10:00:16.248Z,100953.50
2022-10-23T10:03:23.530Z,100944.81
2022-10-23T10:09:47.710Z,100943.72
2022-10-23T10:13:02.044Z,100947.31
2022-10-23T10:16:18.334Z,100937.41
2022-10-23T10:19:28.917Z,100938.09
2022-10-23T10:22:37.234Z,100948.00
2022-10-23T10:26:02.025Z,100941.91
2022-10-23T10:29:41.753Z,100946.16
2022-10-23T10:32:50.421Z,100943.59
2022-10-23T10:35:53.652Z,100944.41
2022-10-23T10:39:04.405Z,100938.09
2022-10-23T10:42:31.886Z,100931.84
2022-10-23T10:45:57.731Z,100932.59
2022-10-23T10:49:11.082Z,100935.22
2022-10-23T10:52:32.050Z,100934.34
2022-10-23T10:55:52.508Z,100937.16
2022-10-23T10:58:58.126Z,100928.91
2022-10-23T11:02:12.574Z,100939.72
2022-10-23T11:05:30.528Z,100933.50
2022-10-23T11:08:49.866Z,100919.06
2022-10-23T11:12:00.420Z,100922.63
2022-10-23T11:15:03.655Z,100916.34
2022-10-23T11:18:13.221Z,100918.91
2022-10-23T11:21:29.905Z,100925.97
2022-10-23T11:24:52.356Z,100935.00
2022-10-23T11:28:05.278Z,100921.66
2022-10-23T11:31:47.566Z,100917.13
2022-10-23T11:34:55.842Z,100921.66
2022-10-23T11:38:09.782Z,100929.69
2022-10-23T11:41:23.660Z,100924.34
2022-10-23T11:44:44.354Z,100927.94
2022-10-23T11:47:57.311Z,100921.78
2022-10-23T11:51:01.553Z,100921.84
2022-10-23T11:54:13.574Z,100922.50
2022-10-23T11:57:17.770Z,100925.34
2022-10-23T12:00:22.613Z,100919.25
2022-10-23T12:03:29.759Z,100922.00
2022-10-23T12:07:02.800Z,100918.47
2022-10-23T12:10:27.578Z,100926.41
2022-10-23T12:13:45.816Z,100923.06
2022-10-23T12:16:47.747Z,100919.59
2022-10-23T12:19:55.933Z,100930.25
2022-10-23T12:23:00.593Z,100920.63
2022-10-23T12:26:05.551Z,100925.06
2022-10-23T12:29:19.968Z,100926.03
2022-10-23T12:32:43.200Z,100932.22
2022-10-23T12:36:06.840Z,100926.91
2022-10-23T12:39:37.317Z,100922.47
2022-10-23T12:42:39.604Z,100920.72
2022-10-23T12:45:43.668Z,100915.22
2022-10-23T12:48:53.728Z,100910.84
2022-10-23T12:52:13.970Z,100922.53
2022-10-23T12:55:16.436Z,100921.59
2022-10-23T12:58:20.275Z,100918.91
2022-10-23T13:01:36.990Z,100921.59
2022-10-23T13:04:41.239Z,100921.56
2022-10-23T13:07:46.434Z,100917.94
2022-10-23T13:10:50.958Z,100925.09
2022-10-23T13:13:55.844Z,100922.44
2022-10-23T13:17:07.165Z,100924.19
2022-10-23T13:20:42.568Z,100919.72
2022-10-23T13:23:45.424Z,100923.25
2022-10-23T13:26:47.587Z,100926.81
2022-10-23T13:29:49.876Z,100920.63
2022-10-23T13:32:52.090Z,100919.53
2022-10-23T13:35:59.611Z,100929.34
2022-10-23T13:39:03.517Z,100921.31
2022-10-23T13:42:14.013Z,100924.91
2022-10-23T13:45:24.772Z,100920.50
2022-10-23T13:48:27.902Z,100922.19
2022-10-23T13:51:37.643Z,100914.19
2022-10-23T13:54:43.592Z,100919.50
2022-10-23T13:57:46.015Z,100920.34
2022-10-23T14:00:49.790Z,100916.81
2022-10-23T14:03:52.635Z,100918.63
2022-10-23T14:06:58.432Z,100919.50
2022-10-23T14:10:00.588Z,100912.19
2022-10-23T14:13:02.861Z,100915.03
2022-10-23T14:16:05.418Z,100911.47
2022-10-23T14:19:08.465Z,100913.19
2022-10-23T14:22:10.668Z,100913.97
2022-10-23T14:25:12.918Z,100919.28
2022-10-23T14:28:15.142Z,100920.03
2022-10-23T14:31:18.022Z,100933.47
2022-10-23T14:34:20.017Z,100921.13
2022-10-23T14:37:22.964Z,100915.59
2022-10-23T14:40:25.483Z,100920.00
2022-10-23T14:43:27.821Z,100919.16
2022-10-23T14:46:30.046Z,100926.81
2022-10-23T14:49:32.513Z,100920.72
2022-10-23T14:52:34.563Z,100918.03
2022-10-23T14:55:36.792Z,100903.72
2022-10-23T14:58:39.815Z,100919.78
2022-10-23T15:01:45.576Z,100917.16
2022-10-23T15:04:49.298Z,100914.56
2022-10-23T15:07:51.507Z,100916.31
2022-10-23T15:10:53.625Z,100914.41
2022-10-23T15:13:56.524Z,100914.34
2022-10-23T15:16:58.756Z,100912.59
2022-10-23T15:20:01.001Z,100909.19
2022-10-23T15:23:03.787Z,100912.69
2022-10-23T15:26:08.315Z,100910.94
2022-10-23T15:29:11.317Z,100914.44
2022-10-23T15:32:13.728Z,100911.91
2022-10-23T15:35:15.858Z,100897.63
2022-10-23T15:38:18.411Z,100914.53
2022-10-23T15:41:33.863Z,100905.56
2022-10-23T15:44:36.254Z,100908.22
2022-10-23T15:47:38.437Z,100919.72
2022-10-23T15:50:40.682Z,100918.00
2022-10-23T15:53:42.944Z,100915.34
2022-10-23T15:56:46.271Z,100918.13
2022-10-23T15:59:48.293Z,100923.47
2022-10-23T16:02:50.547Z,100911.00
2022-10-23T16:05:52.736Z,100907.44
2022-10-23T16:08:55.097Z,100924.59
2022-10-23T16:11:57.223Z,100922.78
2022-10-23T16:14:59.512Z,100916.59
2022-10-23T16:18:01.808Z,100907.56
2022-10-23T16:21:04.665Z,100924.47
2022-10-23T16:24:08.425Z,100920.06
2022-10-23T16:27:10.789Z,100921.94
2022-10-23T16:30:14.252Z,100927.28
2022-10-23T16:33:16.557Z,100936.16
2022-10-23T16:36:19.293Z,100934.44
2022-10-23T16:39:39.953Z,100924.56
2022-10-23T16:43:00.412Z,100932.69
2022-10-23T16:46:17.469Z,100928.38
2022-10-23T16:49:19.811Z,100934.56
2022-10-23T16:52:22.610Z,100945.28
2022-10-23T16:55:24.685Z,100948.03
2022-10-23T16:58:27.568Z,100950.66
2022-10-23T17:01:31.900Z,100946.16
2022-10-23T17:04:36.249Z,100947.97
2022-10-23T17:07:38.837Z,100959.50
2022-10-23T17:10:41.870Z,100955.03
2022-10-23T17:13:47.356Z,100959.50
2022-10-23T17:16:53.801Z,100946.97
2022-10-23T17:19:56.080Z,100949.63
2022-10-23T17:22:58.292Z,100956.81
2022-10-23T17:26:00.657Z,100947.06
2022-10-23T17:29:04.835Z,100958.63
2022-10-23T17:32:07.163Z,100949.72
2022-10-23T17:35:09.797Z,100948.81
2022-10-23T17:38:18.217Z,100937.38
2022-10-23T17:41:22.784Z,100938.41
2022-10-23T17:44:25.217Z,100937.56
2022-10-23T17:47:27.578Z,100945.63
2022-10-23T17:50:29.609Z,100942.94
2022-10-23T17:53:31.908Z,100949.28
2022-10-23T17:56:37.634Z,100949.34
2022-10-23T17:59:40.130Z,100950.28
2022-10-23T18:02:42.350Z,100933.47
2022-10-23T18:05:44.809Z,100933.56
2022-10-23T18:08:49.987Z,100938.03
2022-10-23T18:11:53.739Z,100929.25
2022-10-23T18:14:56.736Z,100933.75
2022-10-23T18:17:59.157Z,100918.78
2022-10-23T18:21:03.633Z,100941.09
2022-10-23T18:24:06.321Z,100940.28
2022-10-23T18:27:08.667Z,100937.69
2022-10-23T18:30:11.753Z,100937.75
2022-10-23T18:33:15.124Z,100939.56
2022-10-23T18:36:21.029Z,100952.06
2022-10-23T18:39:25.729Z,100949.44
2022-10-23T18:42:28.437Z,100946.84
2022-10-23T18:45:31.561Z,100952.19
2022-10-23T18:48:34.056Z,100946.84
2022-10-23T18:51:37.120Z,100938.00
2022-10-23T18:54:40.070Z,100934.53
2022-10-23T18:57:42.574Z,100939.88
2022-10-23T19:00:45.644Z,100945.25
2022-10-23T19:03:48.019Z,100941.69
2022-10-23T19:06:51.136Z,100943.47
2022-10-23T19:09:56.194Z,100952.38
2022-10-23T19:12:58.987Z,100955.06
2022-10-23T19:16:01.589Z,100950.59
2022-10-23T19:19:26.105Z,100947.97
2022-10-23T19:22:30.756Z,100952.41
2022-10-23T19:25:33.988Z,100943.59
2022-10-23T19:28:45.394Z,100943.59
2022-10-23T19:31:49.374Z,100943.59
2022-10-23T19:34:53.075Z,100933.84
2022-10-23T19:37:56.562Z,100941.84
2022-10-23T19:40:58.730Z,100946.28
2022-10-23T19:44:01.161Z,100940.09
2022-10-23T19:47:04.153Z,100944.50
2022-10-23T19:50:07.740Z,100927.69
2022-10-23T19:53:10.023Z,100939.22
2022-10-23T19:56:13.110Z,100941.88
2022-10-23T19:59:15.834Z,100932.97
2022-10-23T20:02:19.780Z,100933.84
2022-10-23T20:05:22.079Z,100941.81
2022-10-23T20:08:24.510Z,100929.41
2022-10-23T20:11:29.810Z,100931.19
2022-10-23T20:14:32.661Z,100932.06
2022-10-23T20:17:34.889Z,100926.75
2022-10-23T20:20:41.386Z,100919.66
2022-10-23T20:23:43.710Z,100915.22
2022-10-23T20:26:48.882Z,100902.81
2022-10-23T20:29:52.590Z,100909.88
2022-10-23T20:32:55.517Z,100896.56
2022-10-23T20:35:58.200Z,100908.09
2022-10-23T20:39:07.557Z,100897.41
2022-10-23T20:42:09.744Z,100904.50
2022-10-23T20:45:12.059Z,100908.03
2022-10-23T20:48:14.153Z,100900.91
2022-10-23T20:51:19.036Z,100895.59
2022-10-23T20:54:21.994Z,100884.03
2022-10-23T20:57:24.435Z,100900.88
2022-10-23T21:00:27.050Z,100897.31
2022-10-23T21:03:29.485Z,100890.19
2022-10-23T21:06:46.273Z,100891.97
2022-10-23T21:09:57.618Z,100891.06
2022-10-23T21:12:59.675Z,100885.78
2022-10-23T21:16:15.205Z,100881.34
2022-10-23T21:19:17.306Z,100877.75
2022-10-23T21:22:22.448Z,100877.78
2022-10-23T21:25:24.487Z,100883.06
2022-10-23T21:28:27.109Z,100886.59
2022-10-23T21:31:29.454Z,100891.03
2022-10-23T21:34:31.845Z,100894.53
2022-10-23T21:37:34.024Z,100888.28
2022-10-23T21:40:36.569Z,100876.72
2022-10-23T21:43:38.637Z,100886.47
2022-10-23T21:46:41.945Z,100880.22
2022-10-23T21:49:44.232Z,100891.75
2022-10-23T21:52:51.022Z,100884.66
2022-10-23T21:55:53.583Z,100881.97
2022-10-23T21:58:57.086Z,100879.28
2022-10-23T22:01:59.682Z,100881.94
2022-10-23T22:05:02.080Z,100879.28
2022-10-23T22:08:04.233Z,100885.50
2022-10-23T22:11:06.473Z,100889.00
2022-10-23T22:14:08.663Z,100891.69
2022-10-23T22:17:10.902Z,100884.59
2022-10-23T22:20:12.958Z,100890.78
2022-10-23T22:23:15.317Z,100886.31
2022-10-23T22:26:26.078Z,100899.59
2022-10-23T22:29:29.541Z,100891.63
2022-10-23T22:32:31.715Z,100876.56
2022-10-23T22:35:34.022Z,100884.53
2022-10-23T22:38:36.195Z,100879.19
2022-10-23T22:41:39.012Z,100876.56
2022-10-23T22:44:41.116Z,100861.50
2022-10-23T22:47:43.238Z,100866.78
2022-10-23T22:50:46.529Z,100857.88
2022-10-23T22:53:48.800Z,100860.53
2022-10-23T22:56:50.917Z,100869.34
2022-10-23T22:59:53.128Z,100871.06
2022-10-23T23:02:55.126Z,100864.81
2022-10-23T23:05:57.433Z,100853.38
2022-10-23T23:08:59.508Z,100858.63
2022-10-23T23:12:01.788Z,100855.97
2022-10-23T23:15:04.495Z,100854.16
2022-10-23T23:18:06.767Z,100862.19
2022-10-23T23:21:08.803Z,100863.06
2022-10-23T23:24:11.928Z,100857.75
2022-10-23T23:27:13.988Z,100857.75
2022-10-23T23:30:16.361Z,100852.38
2022-10-23T23:33:24.040Z,100864.81
2022-10-23T23:36:27.572Z,100865.69
2022-10-23T23:39:29.762Z,100854.16
2022-10-23T23:42:32.029Z,100847.09
2022-10-23T23:45:34.163Z,100842.66
2022-10-23T23:48:36.891Z,100831.16
2022-10-23T23:51:39.013Z,100845.25
2022-10-23T23:54:41.351Z,100858.53
2022-10-23T23:57:43.745Z,100845.22
